Accueil
METAR-TAF:

METAR-TAF

Aéroports :

Tokyo Heliport, Japon

latitude: 35-38N, longitude: 139-51E, altitude: 5 m

Observation

Le bulletin a été fait il y a 14 heures et 18 minutes, à 07:00 UTC
Vent 13 kt de nord-ouest avec des rafales jusqu'à 24 kt, variant entre sud/sud-ouest et nord/nord-est
Température 10°C
Humidité 23%
Pression 1017 hPa
Visibilité 10 km ou plus
Quelques nuages à une hauteur de 3000 ft

METAR: RJTI 270700Z 32013G24KT 210V020 9999 FEW030 10/M10 Q1017

Heure: 06:18 (21:18 UTC)


TAF: absent

Observations et prévisions météorologiques de plus de 4000 aéroports (messages METAR et TAF).

Les stations disponibles sont représentées par des disques jaunes et rouges sur la carte.

Passer la souris dessus pour voir le nom de la station.

Cliquer dessus pour voir les observations et prévisions météorologiques.

Pour changer de carte: cliquez sur les boutons verts avec une croix noire pour zoomer, sur le bouton vert avec un tiret pour effectuer un zoom arrière, ou sur les flèches vertes pour les cartes adjacentes.


METAR-TAF: